sensor_id;sensor_type;location;lat;lon;timestamp;P1;durP1;ratioP1;P2;durP2;ratioP2
485;SDS011;229;48.734;9.340;2023-03-01T00:00:06;24.10;;;18.58;;
485;SDS011;229;48.734;9.340;2023-03-01T00:02:34;24.42;;;20.00;;
485;SDS011;229;48.734;9.340;2023-03-01T00:05:01;26.20;;;19.40;;
485;SDS011;229;48.734;9.340;2023-03-01T00:07:28;24.65;;;19.90;;
485;SDS011;229;48.734;9.340;2023-03-01T00:09:57;25.30;;;19.45;;
485;SDS011;229;48.734;9.340;2023-03-01T00:12:24;26.50;;;19.77;;
485;SDS011;229;48.734;9.340;2023-03-01T00:14:52;26.20;;;20.60;;
485;SDS011;229;48.734;9.340;2023-03-01T00:17:19;24.40;;;19.23;;
485;SDS011;229;48.734;9.340;2023-03-01T00:19:47;28.75;;;21.05;;
485;SDS011;229;48.734;9.340;2023-03-01T00:22:14;24.80;;;19.92;;
485;SDS011;229;48.734;9.340;2023-03-01T00:24:41;24.10;;;18.95;;
485;SDS011;229;48.734;9.340;2023-03-01T00:27:10;27.85;;;20.65;;
485;SDS011;229;48.734;9.340;2023-03-01T00:29:37;26.05;;;19.25;;
485;SDS011;229;48.734;9.340;2023-03-01T00:32:04;25.23;;;19.27;;
485;SDS011;229;48.734;9.340;2023-03-01T00:34:31;25.50;;;18.88;;
485;SDS011;229;48.734;9.340;2023-03-01T00:36:59;25.98;;;19.63;;
485;SDS011;229;48.734;9.340;2023-03-01T00:39:30;26.48;;;20.60;;
485;SDS011;229;48.734;9.340;2023-03-01T00:41:58;26.75;;;21.75;;
485;SDS011;229;48.734;9.340;2023-03-01T00:44:26;23.77;;;20.15;;
485;SDS011;229;48.734;9.340;2023-03-01T00:46:54;23.13;;;19.20;;
485;SDS011;229;48.734;9.340;2023-03-01T00:49:21;28.13;;;20.08;;
485;SDS011;229;48.734;9.340;2023-03-01T00:51:49;26.23;;;19.83;;
485;SDS011;229;48.734;9.340;2023-03-01T00:54:16;30.35;;;21.40;;
485;SDS011;229;48.734;9.340;2023-03-01T00:56:43;25.48;;;20.88;;
485;SDS011;229;48.734;9.340;2023-03-01T00:59:10;26.63;;;20.77;;
485;SDS011;229;48.734;9.340;2023-03-01T01:01:39;28.98;;;20.55;;
485;SDS011;229;48.734;9.340;2023-03-01T01:04:07;27.77;;;20.38;;
485;SDS011;229;48.734;9.340;2023-03-01T01:06:35;28.85;;;20.50;;
485;SDS011;229;48.734;9.340;2023-03-01T01:09:03;28.52;;;21.15;;
485;SDS011;229;48.734;9.340;2023-03-01T01:11:31;27.35;;;20.50;;
485;SDS011;229;48.734;9.340;2023-03-01T01:14:00;27.13;;;20.83;;
485;SDS011;229;48.734;9.340;2023-03-01T01:16:27;28.02;;;20.45;;
485;SDS011;229;48.734;9.340;2023-03-01T01:18:57;26.60;;;19.55;;
485;SDS011;229;48.734;9.340;2023-03-01T01:21:24;28.45;;;20.92;;
485;SDS011;229;48.734;9.340;2023-03-01T01:23:52;28.13;;;21.25;;
485;SDS011;229;48.734;9.340;2023-03-01T01:26:20;27.83;;;20.77;;
485;SDS011;229;48.734;9.340;2023-03-01T01:28:47;27.05;;;20.60;;
485;SDS011;229;48.734;9.340;2023-03-01T01:31:15;31.08;;;21.40;;
485;SDS011;229;48.734;9.340;2023-03-01T01:33:42;25.95;;;19.77;;
485;SDS011;229;48.734;9.340;2023-03-01T01:36:11;26.80;;;20.90;;
485;SDS011;229;48.734;9.340;2023-03-01T01:38:39;27.75;;;20.25;;
485;SDS011;229;48.734;9.340;2023-03-01T01:41:07;26.35;;;20.65;;
485;SDS011;229;48.734;9.340;2023-03-01T01:43:37;28.90;;;21.08;;
485;SDS011;229;48.734;9.340;2023-03-01T01:46:06;30.90;;;20.88;;
485;SDS011;229;48.734;9.340;2023-03-01T01:48:39;26.85;;;20.33;;
485;SDS011;229;48.734;9.340;2023-03-01T01:51:11;31.50;;;20.95;;
485;SDS011;229;48.734;9.340;2023-03-01T01:53:39;31.00;;;21.95;;
485;SDS011;229;48.734;9.340;2023-03-01T01:56:07;26.73;;;21.38;;
485;SDS011;229;48.734;9.340;2023-03-01T01:58:35;25.88;;;19.98;;
485;SDS011;229;48.734;9.340;2023-03-01T02:01:03;26.40;;;19.90;;
485;SDS011;229;48.734;9.340;2023-03-01T02:03:31;28.83;;;20.10;;
485;SDS011;229;48.734;9.340;2023-03-01T02:06:03;29.00;;;20.67;;
485;SDS011;229;48.734;9.340;2023-03-01T02:08:33;29.30;;;21.92;;
485;SDS011;229;48.734;9.340;2023-03-01T02:11:02;31.08;;;21.48;;
485;SDS011;229;48.734;9.340;2023-03-01T02:13:30;26.17;;;20.25;;
485;SDS011;229;48.734;9.340;2023-03-01T02:15:57;27.30;;;20.27;;
485;SDS011;229;48.734;9.340;2023-03-01T02:18:25;33.13;;;20.75;;
485;SDS011;229;48.734;9.340;2023-03-01T02:20:57;26.98;;;20.35;;
485;SDS011;229;48.734;9.340;2023-03-01T02:23:26;26.75;;;19.02;;
485;SDS011;229;48.734;9.340;2023-03-01T02:25:56;27.25;;;20.02;;
485;SDS011;229;48.734;9.340;2023-03-01T02:28:27;25.45;;;19.98;;
485;SDS011;229;48.734;9.340;2023-03-01T02:30:56;29.23;;;20.30;;
485;SDS011;229;48.734;9.340;2023-03-01T02:33:41;26.95;;;19.20;;
485;SDS011;229;48.734;9.340;2023-03-01T02:36:09;26.52;;;20.38;;
485;SDS011;229;48.734;9.340;2023-03-01T02:38:38;30.45;;;20.08;;
485;SDS011;229;48.734;9.340;2023-03-01T02:41:05;26.90;;;19.95;;
485;SDS011;229;48.734;9.340;2023-03-01T02:43:34;29.50;;;21.48;;
485;SDS011;229;48.734;9.340;2023-03-01T02:46:03;28.63;;;21.45;;
485;SDS011;229;48.734;9.340;2023-03-01T02:48:39;27.20;;;20.75;;
485;SDS011;229;48.734;9.340;2023-03-01T02:51:07;27.33;;;21.35;;
485;SDS011;229;48.734;9.340;2023-03-01T02:53:39;28.60;;;21.38;;
485;SDS011;229;48.734;9.340;2023-03-01T02:56:09;28.95;;;21.35;;
485;SDS011;229;48.734;9.340;2023-03-01T02:58:39;27.73;;;20.38;;
485;SDS011;229;48.734;9.340;2023-03-01T03:01:10;24.20;;;19.30;;
485;SDS011;229;48.734;9.340;2023-03-01T03:03:38;25.33;;;19.45;;
485;SDS011;229;48.734;9.340;2023-03-01T03:06:06;26.85;;;20.17;;
485;SDS011;229;48.734;9.340;2023-03-01T03:08:33;32.03;;;21.27;;
485;SDS011;229;48.734;9.340;2023-03-01T03:11:00;28.25;;;21.55;;
485;SDS011;229;48.734;9.340;2023-03-01T03:13:27;26.20;;;19.90;;
485;SDS011;229;48.734;9.340;2023-03-01T03:15:56;27.95;;;21.20;;
485;SDS011;229;48.734;9.340;2023-03-01T03:18:24;30.75;;;21.70;;
485;SDS011;229;48.734;9.340;2023-03-01T03:20:54;25.30;;;19.88;;
485;SDS011;229;48.734;9.340;2023-03-01T03:23:21;29.25;;;21.60;;
485;SDS011;229;48.734;9.340;2023-03-01T03:25:49;30.05;;;22.52;;
485;SDS011;229;48.734;9.340;2023-03-01T03:28:16;27.55;;;21.20;;
485;SDS011;229;48.734;9.340;2023-03-01T03:30:44;30.83;;;21.83;;
485;SDS011;229;48.734;9.340;2023-03-01T03:33:13;30.75;;;21.55;;
485;SDS011;229;48.734;9.340;2023-03-01T03:35:41;30.48;;;22.27;;
485;SDS011;229;48.734;9.340;2023-03-01T03:38:09;28.83;;;21.08;;
485;SDS011;229;48.734;9.340;2023-03-01T03:40:42;29.58;;;22.38;;
485;SDS011;229;48.734;9.340;2023-03-01T03:43:10;28.40;;;22.08;;
485;SDS011;229;48.734;9.340;2023-03-01T03:45:38;29.08;;;21.40;;
485;SDS011;229;48.734;9.340;2023-03-01T03:48:06;29.75;;;21.65;;
485;SDS011;229;48.734;9.340;2023-03-01T03:50:35;29.60;;;22.60;;
485;SDS011;229;48.734;9.340;2023-03-01T03:53:03;33.90;;;22.50;;
485;SDS011;229;48.734;9.340;2023-03-01T03:55:31;31.40;;;20.85;;
485;SDS011;229;48.734;9.340;2023-03-01T03:57:58;32.75;;;21.83;;
485;SDS011;229;48.734;9.340;2023-03-01T04:00:31;32.10;;;22.45;;
485;SDS011;229;48.734;9.340;2023-03-01T04:02:59;33.85;;;23.23;;
485;SDS011;229;48.734;9.340;2023-03-01T04:05:27;33.15;;;23.27;;
485;SDS011;229;48.734;9.340;2023-03-01T04:07:56;35.53;;;23.65;;
485;SDS011;229;48.734;9.340;2023-03-01T04:10:32;31.42;;;22.63;;
485;SDS011;229;48.734;9.340;2023-03-01T04:13:00;30.58;;;22.40;;
485;SDS011;229;48.734;9.340;2023-03-01T04:15:27;30.42;;;22.90;;
485;SDS011;229;48.734;9.340;2023-03-01T04:17:54;36.42;;;24.33;;
485;SDS011;229;48.734;9.340;2023-03-01T04:20:23;31.08;;;23.38;;
485;SDS011;229;48.734;9.340;2023-03-01T04:22:51;35.15;;;23.10;;
485;SDS011;229;48.734;9.340;2023-03-01T04:25:20;28.50;;;22.35;;
485;SDS011;229;48.734;9.340;2023-03-01T04:27:47;35.78;;;23.58;;
485;SDS011;229;48.734;9.340;2023-03-01T04:30:15;31.50;;;23.33;;
485;SDS011;229;48.734;9.340;2023-03-01T04:32:42;30.88;;;22.20;;
485;SDS011;229;48.734;9.340;2023-03-01T04:35:09;30.65;;;22.90;;
485;SDS011;229;48.734;9.340;2023-03-01T04:37:36;34.25;;;23.30;;
485;SDS011;229;48.734;9.340;2023-03-01T04:40:04;32.25;;;22.25;;
485;SDS011;229;48.734;9.340;2023-03-01T04:42:42;30.20;;;21.50;;
485;SDS011;229;48.734;9.340;2023-03-01T04:45:10;34.42;;;24.15;;
485;SDS011;229;48.734;9.340;2023-03-01T04:47:39;32.75;;;23.58;;
485;SDS011;229;48.734;9.340;2023-03-01T04:50:08;30.95;;;23.00;;
485;SDS011;229;48.734;9.340;2023-03-01T04:52:35;34.78;;;24.90;;
485;SDS011;229;48.734;9.340;2023-03-01T04:55:03;32.65;;;23.55;;
485;SDS011;229;48.734;9.340;2023-03-01T04:57:30;32.97;;;24.52;;
485;SDS011;229;48.734;9.340;2023-03-01T04:59:59;31.45;;;21.00;;
485;SDS011;229;48.734;9.340;2023-03-01T05:02:27;34.13;;;24.92;;
485;SDS011;229;48.734;9.340;2023-03-01T05:04:54;29.45;;;23.08;;
485;SDS011;229;48.734;9.340;2023-03-01T05:07:22;31.92;;;23.27;;
485;SDS011;229;48.734;9.340;2023-03-01T05:09:51;34.30;;;24.65;;
485;SDS011;229;48.734;9.340;2023-03-01T05:12:19;31.73;;;21.80;;
485;SDS011;229;48.734;9.340;2023-03-01T05:14:46;29.35;;;23.38;;
485;SDS011;229;48.734;9.340;2023-03-01T05:17:15;37.35;;;25.25;;
485;SDS011;229;48.734;9.340;2023-03-01T05:19:42;29.85;;;23.00;;
485;SDS011;229;48.734;9.340;2023-03-01T05:22:09;32.63;;;23.40;;
485;SDS011;229;48.734;9.340;2023-03-01T05:24:36;30.83;;;23.13;;
485;SDS011;229;48.734;9.340;2023-03-01T05:27:04;35.55;;;24.92;;
485;SDS011;229;48.734;9.340;2023-03-01T05:29:31;33.08;;;23.67;;
485;SDS011;229;48.734;9.340;2023-03-01T05:32:00;30.35;;;22.85;;
485;SDS011;229;48.734;9.340;2023-03-01T05:34:29;29.73;;;22.10;;
485;SDS011;229;48.734;9.340;2023-03-01T05:36:57;39.60;;;25.25;;
485;SDS011;229;48.734;9.340;2023-03-01T05:39:25;34.10;;;23.33;;
485;SDS011;229;48.734;9.340;2023-03-01T05:41:53;30.80;;;23.48;;
485;SDS011;229;48.734;9.340;2023-03-01T05:44:21;34.47;;;24.95;;
485;SDS011;229;48.734;9.340;2023-03-01T05:46:48;33.17;;;24.65;;
485;SDS011;229;48.734;9.340;2023-03-01T05:49:15;34.17;;;26.25;;
485;SDS011;229;48.734;9.340;2023-03-01T05:51:47;32.97;;;24.33;;
485;SDS011;229;48.734;9.340;2023-03-01T05:54:15;34.10;;;25.60;;
485;SDS011;229;48.734;9.340;2023-03-01T05:56:42;31.60;;;24.55;;
485;SDS011;229;48.734;9.340;2023-03-01T05:59:10;34.33;;;25.70;;
485;SDS011;229;48.734;9.340;2023-03-01T06:01:38;36.28;;;24.95;;
485;SDS011;229;48.734;9.340;2023-03-01T06:04:06;34.72;;;25.00;;
485;SDS011;229;48.734;9.340;2023-03-01T06:06:33;35.10;;;25.50;;
485;SDS011;229;48.734;9.340;2023-03-01T06:09:03;35.25;;;26.27;;
485;SDS011;229;48.734;9.340;2023-03-01T06:11:33;34.97;;;26.30;;
485;SDS011;229;48.734;9.340;2023-03-01T06:14:00;36.05;;;26.60;;
485;SDS011;229;48.734;9.340;2023-03-01T06:16:27;34.00;;;27.65;;
485;SDS011;229;48.734;9.340;2023-03-01T06:18:55;32.00;;;24.80;;
485;SDS011;229;48.734;9.340;2023-03-01T06:21:22;38.63;;;27.00;;
485;SDS011;229;48.734;9.340;2023-03-01T06:23:49;34.95;;;25.77;;
485;SDS011;229;48.734;9.340;2023-03-01T06:26:18;35.45;;;26.42;;
485;SDS011;229;48.734;9.340;2023-03-01T06:28:45;33.08;;;25.70;;
485;SDS011;229;48.734;9.340;2023-03-01T06:31:12;31.50;;;25.20;;
485;SDS011;229;48.734;9.340;2023-03-01T06:33:39;38.10;;;26.15;;
485;SDS011;229;48.734;9.340;2023-03-01T06:36:07;32.00;;;26.02;;
485;SDS011;229;48.734;9.340;2023-03-01T06:38:35;34.17;;;25.40;;
485;SDS011;229;48.734;9.340;2023-03-01T06:41:02;34.15;;;25.83;;
485;SDS011;229;48.734;9.340;2023-03-01T06:43:31;36.63;;;26.35;;
485;SDS011;229;48.734;9.340;2023-03-01T06:45:58;31.92;;;24.20;;
485;SDS011;229;48.734;9.340;2023-03-01T06:48:26;31.58;;;24.05;;
485;SDS011;229;48.734;9.340;2023-03-01T06:50:53;36.15;;;25.13;;
485;SDS011;229;48.734;9.340;2023-03-01T06:53:20;32.47;;;25.38;;
485;SDS011;229;48.734;9.340;2023-03-01T06:55:47;34.92;;;26.63;;
485;SDS011;229;48.734;9.340;2023-03-01T06:58:14;35.60;;;25.55;;
485;SDS011;229;48.734;9.340;2023-03-01T07:00:43;31.38;;;25.52;;
485;SDS011;229;48.734;9.340;2023-03-01T07:03:10;35.13;;;25.40;;
485;SDS011;229;48.734;9.340;2023-03-01T07:05:37;35.92;;;27.42;;
485;SDS011;229;48.734;9.340;2023-03-01T07:08:04;35.72;;;26.70;;
485;SDS011;229;48.734;9.340;2023-03-01T07:10:31;37.05;;;26.30;;
485;SDS011;229;48.734;9.340;2023-03-01T07:12:59;32.10;;;25.85;;
485;SDS011;229;48.734;9.340;2023-03-01T07:15:26;34.47;;;27.10;;
485;SDS011;229;48.734;9.340;2023-03-01T07:17:55;34.78;;;26.73;;
485;SDS011;229;48.734;9.340;2023-03-01T07:20:22;34.25;;;26.98;;
485;SDS011;229;48.734;9.340;2023-03-01T07:22:50;34.42;;;26.88;;
485;SDS011;229;48.734;9.340;2023-03-01T07:25:17;38.72;;;27.10;;
485;SDS011;229;48.734;9.340;2023-03-01T07:27:48;37.05;;;27.65;;
485;SDS011;229;48.734;9.340;2023-03-01T07:30:16;36.65;;;26.63;;
485;SDS011;229;48.734;9.340;2023-03-01T07:32:43;34.13;;;25.40;;
485;SDS011;229;48.734;9.340;2023-03-01T07:35:12;30.50;;;23.83;;
485;SDS011;229;48.734;9.340;2023-03-01T07:37:40;31.80;;;24.13;;
485;SDS011;229;48.734;9.340;2023-03-01T07:40:08;31.35;;;24.25;;
485;SDS011;229;48.734;9.340;2023-03-01T07:42:35;33.65;;;24.13;;
485;SDS011;229;48.734;9.340;2023-03-01T07:45:03;32.78;;;24.52;;
485;SDS011;229;48.734;9.340;2023-03-01T07:47:30;34.80;;;24.63;;
485;SDS011;229;48.734;9.340;2023-03-01T07:49:58;32.30;;;24.27;;
485;SDS011;229;48.734;9.340;2023-03-01T07:52:27;31.65;;;24.05;;
485;SDS011;229;48.734;9.340;2023-03-01T07:54:54;32.92;;;24.88;;
485;SDS011;229;48.734;9.340;2023-03-01T07:57:21;33.63;;;24.40;;
485;SDS011;229;48.734;9.340;2023-03-01T07:59:49;34.17;;;23.70;;
485;SDS011;229;48.734;9.340;2023-03-01T08:02:16;29.27;;;23.40;;
485;SDS011;229;48.734;9.340;2023-03-01T08:04:43;30.17;;;23.45;;
485;SDS011;229;48.734;9.340;2023-03-01T08:07:10;33.22;;;24.10;;
485;SDS011;229;48.734;9.340;2023-03-01T08:09:39;33.08;;;24.75;;
485;SDS011;229;48.734;9.340;2023-03-01T08:12:06;33.60;;;24.90;;
485;SDS011;229;48.734;9.340;2023-03-01T08:14:33;32.65;;;22.80;;
485;SDS011;229;48.734;9.340;2023-03-01T08:17:00;30.92;;;23.65;;
485;SDS011;229;48.734;9.340;2023-03-01T08:19:29;30.33;;;23.42;;
485;SDS011;229;48.734;9.340;2023-03-01T08:21:56;32.50;;;23.38;;
485;SDS011;229;48.734;9.340;2023-03-01T08:24:25;30.27;;;23.05;;
485;SDS011;229;48.734;9.340;2023-03-01T08:26:53;31.80;;;23.10;;
485;SDS011;229;48.734;9.340;2023-03-01T08:29:21;29.83;;;22.38;;
485;SDS011;229;48.734;9.340;2023-03-01T08:31:49;28.42;;;21.35;;
485;SDS011;229;48.734;9.340;2023-03-01T08:34:17;30.80;;;23.10;;
485;SDS011;229;48.734;9.340;2023-03-01T08:36:45;34.80;;;22.73;;
485;SDS011;229;48.734;9.340;2023-03-01T08:39:13;28.05;;;22.13;;
485;SDS011;229;48.734;9.340;2023-03-01T08:41:40;27.95;;;22.60;;
485;SDS011;229;48.734;9.340;2023-03-01T08:44:09;28.35;;;23.30;;
485;SDS011;229;48.734;9.340;2023-03-01T08:46:38;32.30;;;24.10;;
485;SDS011;229;48.734;9.340;2023-03-01T08:49:06;31.45;;;22.27;;
485;SDS011;229;48.734;9.340;2023-03-01T08:51:34;26.50;;;22.10;;
485;SDS011;229;48.734;9.340;2023-03-01T08:54:02;27.92;;;22.40;;
485;SDS011;229;48.734;9.340;2023-03-01T08:56:29;29.98;;;21.40;;
485;SDS011;229;48.734;9.340;2023-03-01T08:58:57;29.70;;;22.77;;
485;SDS011;229;48.734;9.340;2023-03-01T09:01:25;30.17;;;21.80;;
485;SDS011;229;48.734;9.340;2023-03-01T09:03:53;31.20;;;22.42;;
485;SDS011;229;48.734;9.340;2023-03-01T09:06:20;31.25;;;22.90;;
485;SDS011;229;48.734;9.340;2023-03-01T09:08:48;25.88;;;21.35;;
485;SDS011;229;48.734;9.340;2023-03-01T09:11:16;28.50;;;21.63;;
485;SDS011;229;48.734;9.340;2023-03-01T09:13:43;27.02;;;21.50;;
485;SDS011;229;48.734;9.340;2023-03-01T09:16:12;29.65;;;23.23;;
485;SDS011;229;48.734;9.340;2023-03-01T09:18:40;29.85;;;22.58;;
485;SDS011;229;48.734;9.340;2023-03-01T09:21:08;29.25;;;21.42;;
485;SDS011;229;48.734;9.340;2023-03-01T09:23:36;33.70;;;21.90;;
485;SDS011;229;48.734;9.340;2023-03-01T09:26:04;27.35;;;21.90;;
485;SDS011;229;48.734;9.340;2023-03-01T09:28:31;29.92;;;22.75;;
485;SDS011;229;48.734;9.340;2023-03-01T09:30:59;28.23;;;21.63;;
485;SDS011;229;48.734;9.340;2023-03-01T09:33:27;28.90;;;21.40;;
485;SDS011;229;48.734;9.340;2023-03-01T09:35:59;27.42;;;21.67;;
485;SDS011;229;48.734;9.340;2023-03-01T09:38:26;28.48;;;22.08;;
485;SDS011;229;48.734;9.340;2023-03-01T09:40:53;27.83;;;21.63;;
485;SDS011;229;48.734;9.340;2023-03-01T09:43:21;29.95;;;21.45;;
485;SDS011;229;48.734;9.340;2023-03-01T09:45:50;30.63;;;21.13;;
485;SDS011;229;48.734;9.340;2023-03-01T09:48:21;30.73;;;22.88;;
485;SDS011;229;48.734;9.340;2023-03-01T09:50:50;28.98;;;21.65;;
485;SDS011;229;48.734;9.340;2023-03-01T09:53:20;26.58;;;20.67;;
485;SDS011;229;48.734;9.340;2023-03-01T09:55:49;25.85;;;21.42;;
485;SDS011;229;48.734;9.340;2023-03-01T09:58:24;28.15;;;20.80;;
485;SDS011;229;48.734;9.340;2023-03-01T10:00:55;27.67;;;20.90;;
485;SDS011;229;48.734;9.340;2023-03-01T10:03:24;29.63;;;21.48;;
485;SDS011;229;48.734;9.340;2023-03-01T10:05:55;30.45;;;22.27;;
485;SDS011;229;48.734;9.340;2023-03-01T10:08:29;28.85;;;21.65;;
485;SDS011;229;48.734;9.340;2023-03-01T10:11:00;32.08;;;22.83;;
485;SDS011;229;48.734;9.340;2023-03-01T10:13:30;30.17;;;20.38;;
485;SDS011;229;48.734;9.340;2023-03-01T10:16:00;30.35;;;20.98;;
485;SDS011;229;48.734;9.340;2023-03-01T10:18:29;26.83;;;21.17;;
485;SDS011;229;48.734;9.340;2023-03-01T10:20:58;26.45;;;20.60;;
485;SDS011;229;48.734;9.340;2023-03-01T10:23:26;30.00;;;20.65;;
485;SDS011;229;48.734;9.340;2023-03-01T10:26:02;29.15;;;20.30;;
485;SDS011;229;48.734;9.340;2023-03-01T10:28:35;27.60;;;21.63;;
485;SDS011;229;48.734;9.340;2023-03-01T10:31:08;29.08;;;21.25;;
485;SDS011;229;48.734;9.340;2023-03-01T10:33:38;28.45;;;21.63;;
485;SDS011;229;48.734;9.340;2023-03-01T10:36:06;24.63;;;20.25;;
485;SDS011;229;48.734;9.340;2023-03-01T10:38:46;28.63;;;20.20;;
485;SDS011;229;48.734;9.340;2023-03-01T10:41:15;27.55;;;21.05;;
485;SDS011;229;48.734;9.340;2023-03-01T10:43:43;26.40;;;21.80;;
485;SDS011;229;48.734;9.340;2023-03-01T10:46:21;27.00;;;19.92;;
485;SDS011;229;48.734;9.340;2023-03-01T10:48:55;25.85;;;20.20;;
485;SDS011;229;48.734;9.340;2023-03-01T10:51:32;28.40;;;20.48;;
485;SDS011;229;48.734;9.340;2023-03-01T10:53:59;28.30;;;20.17;;
485;SDS011;229;48.734;9.340;2023-03-01T10:56:28;27.38;;;20.88;;
485;SDS011;229;48.734;9.340;2023-03-01T10:58:59;28.58;;;20.00;;
485;SDS011;229;48.734;9.340;2023-03-01T11:01:27;32.22;;;21.20;;
485;SDS011;229;48.734;9.340;2023-03-01T11:04:09;31.70;;;20.98;;
485;SDS011;229;48.734;9.340;2023-03-01T11:06:37;25.50;;;20.27;;
485;SDS011;229;48.734;9.340;2023-03-01T11:09:13;27.60;;;19.95;;
485;SDS011;229;48.734;9.340;2023-03-01T11:11:42;28.33;;;21.15;;
485;SDS011;229;48.734;9.340;2023-03-01T11:14:12;28.80;;;20.88;;
485;SDS011;229;48.734;9.340;2023-03-01T11:16:43;29.25;;;20.67;;
485;SDS011;229;48.734;9.340;2023-03-01T11:19:15;26.42;;;20.77;;
485;SDS011;229;48.734;9.340;2023-03-01T11:21:45;25.85;;;19.85;;
485;SDS011;229;48.734;9.340;2023-03-01T11:24:14;26.98;;;21.83;;
485;SDS011;229;48.734;9.340;2023-03-01T11:26:44;27.52;;;21.55;;
485;SDS011;229;48.734;9.340;2023-03-01T11:29:16;26.27;;;20.50;;
485;SDS011;229;48.734;9.340;2023-03-01T11:31:45;26.38;;;20.13;;
485;SDS011;229;48.734;9.340;2023-03-01T11:34:14;27.63;;;20.67;;
485;SDS011;229;48.734;9.340;2023-03-01T11:36:43;27.15;;;21.08;;
485;SDS011;229;48.734;9.340;2023-03-01T11:39:17;27.10;;;20.17;;
485;SDS011;229;48.734;9.340;2023-03-01T11:41:48;25.55;;;21.15;;
485;SDS011;229;48.734;9.340;2023-03-01T11:44:18;25.08;;;20.23;;
485;SDS011;229;48.734;9.340;2023-03-01T11:46:50;28.88;;;20.20;;
485;SDS011;229;48.734;9.340;2023-03-01T11:52:01;25.70;;;20.08;;
485;SDS011;229;48.734;9.340;2023-03-01T11:54:33;26.90;;;19.15;;
485;SDS011;229;48.734;9.340;2023-03-01T11:57:07;29.27;;;20.85;;
485;SDS011;229;48.734;9.340;2023-03-01T11:59:43;24.65;;;19.70;;
485;SDS011;229;48.734;9.340;2023-03-01T12:02:16;24.52;;;19.20;;
485;SDS011;229;48.734;9.340;2023-03-01T12:04:54;24.90;;;18.92;;
485;SDS011;229;48.734;9.340;2023-03-01T12:07:26;23.02;;;18.80;;
485;SDS011;229;48.734;9.340;2023-03-01T12:10:06;28.00;;;19.90;;
485;SDS011;229;48.734;9.340;2023-03-01T12:12:42;25.25;;;19.40;;
485;SDS011;229;48.734;9.340;2023-03-01T12:15:20;28.63;;;20.27;;
485;SDS011;229;48.734;9.340;2023-03-01T12:18:13;25.58;;;19.73;;
485;SDS011;229;48.734;9.340;2023-03-01T12:20:45;29.83;;;20.52;;
485;SDS011;229;48.734;9.340;2023-03-01T12:23:25;23.83;;;18.25;;
485;SDS011;229;48.734;9.340;2023-03-01T12:25:58;24.48;;;18.25;;
485;SDS011;229;48.734;9.340;2023-03-01T12:28:46;28.00;;;19.60;;
485;SDS011;229;48.734;9.340;2023-03-01T12:31:33;28.00;;;19.90;;
485;SDS011;229;48.734;9.340;2023-03-01T12:34:03;26.77;;;18.90;;
485;SDS011;229;48.734;9.340;2023-03-01T12:36:44;26.55;;;19.45;;
485;SDS011;229;48.734;9.340;2023-03-01T12:39:21;24.48;;;19.35;;
485;SDS011;229;48.734;9.340;2023-03-01T12:41:51;23.65;;;18.48;;
485;SDS011;229;48.734;9.340;2023-03-01T12:44:30;30.00;;;21.20;;
485;SDS011;229;48.734;9.340;2023-03-01T12:47:02;28.73;;;22.13;;
485;SDS011;229;48.734;9.340;2023-03-01T12:49:33;29.42;;;21.33;;
485;SDS011;229;48.734;9.340;2023-03-01T12:52:03;31.83;;;23.85;;
485;SDS011;229;48.734;9.340;2023-03-01T12:54:35;30.73;;;21.10;;
485;SDS011;229;48.734;9.340;2023-03-01T12:57:03;27.80;;;19.90;;
485;SDS011;229;48.734;9.340;2023-03-01T12:59:38;27.48;;;20.77;;
485;SDS011;229;48.734;9.340;2023-03-01T13:02:10;27.23;;;20.08;;
485;SDS011;229;48.734;9.340;2023-03-01T13:04:46;25.85;;;20.25;;
485;SDS011;229;48.734;9.340;2023-03-01T13:07:27;30.60;;;20.98;;
485;SDS011;229;48.734;9.340;2023-03-01T13:09:57;26.02;;;19.50;;
485;SDS011;229;48.734;9.340;2023-03-01T13:12:44;25.83;;;19.48;;
485;SDS011;229;48.734;9.340;2023-03-01T13:15:32;27.00;;;19.92;;
485;SDS011;229;48.734;9.340;2023-03-01T13:17:59;26.83;;;20.23;;
485;SDS011;229;48.734;9.340;2023-03-01T13:20:29;23.00;;;18.00;;
485;SDS011;229;48.734;9.340;2023-03-01T13:23:02;25.10;;;19.30;;
485;SDS011;229;48.734;9.340;2023-03-01T13:25:29;25.42;;;19.08;;
485;SDS011;229;48.734;9.340;2023-03-01T13:30:41;22.42;;;18.30;;
485;SDS011;229;48.734;9.340;2023-03-01T13:35:55;23.38;;;18.48;;
485;SDS011;229;48.734;9.340;2023-03-01T13:38:38;26.58;;;19.00;;
485;SDS011;229;48.734;9.340;2023-03-01T13:41:06;22.17;;;17.23;;
485;SDS011;229;48.734;9.340;2023-03-01T13:43:34;27.88;;;18.48;;
485;SDS011;229;48.734;9.340;2023-03-01T13:46:07;21.95;;;18.00;;
485;SDS011;229;48.734;9.340;2023-03-01T13:48:36;23.52;;;17.48;;
485;SDS011;229;48.734;9.340;2023-03-01T13:51:05;23.50;;;17.83;;
485;SDS011;229;48.734;9.340;2023-03-01T13:53:34;29.70;;;17.90;;
485;SDS011;229;48.734;9.340;2023-03-01T13:56:03;25.98;;;17.85;;
485;SDS011;229;48.734;9.340;2023-03-01T13:58:43;22.25;;;17.23;;
485;SDS011;229;48.734;9.340;2023-03-01T14:01:20;27.58;;;19.00;;
485;SDS011;229;48.734;9.340;2023-03-01T14:03:48;24.92;;;17.42;;
485;SDS011;229;48.734;9.340;2023-03-01T14:06:16;20.50;;;17.10;;
485;SDS011;229;48.734;9.340;2023-03-01T14:08:44;23.83;;;17.88;;
485;SDS011;229;48.734;9.340;2023-03-01T14:11:24;21.75;;;17.80;;
485;SDS011;229;48.734;9.340;2023-03-01T14:13:57;23.98;;;18.63;;
485;SDS011;229;48.734;9.340;2023-03-01T14:16:32;24.95;;;20.33;;
485;SDS011;229;48.734;9.340;2023-03-01T14:19:07;26.38;;;19.13;;
485;SDS011;229;48.734;9.340;2023-03-01T14:21:35;23.95;;;18.95;;
485;SDS011;229;48.734;9.340;2023-03-01T14:24:03;24.48;;;18.33;;
485;SDS011;229;48.734;9.340;2023-03-01T14:26:30;24.38;;;19.15;;
485;SDS011;229;48.734;9.340;2023-03-01T14:28:58;20.88;;;16.52;;
485;SDS011;229;48.734;9.340;2023-03-01T14:31:31;22.42;;;17.38;;
485;SDS011;229;48.734;9.340;2023-03-01T14:33:59;27.70;;;19.35;;
485;SDS011;229;48.734;9.340;2023-03-01T14:36:27;24.77;;;19.15;;
485;SDS011;229;48.734;9.340;2023-03-01T14:38:55;24.75;;;20.42;;
485;SDS011;229;48.734;9.340;2023-03-01T14:41:24;23.35;;;19.15;;
485;SDS011;229;48.734;9.340;2023-03-01T14:43:53;25.67;;;19.58;;
485;SDS011;229;48.734;9.340;2023-03-01T14:46:24;24.02;;;17.60;;
485;SDS011;229;48.734;9.340;2023-03-01T14:48:54;23.85;;;17.88;;
485;SDS011;229;48.734;9.340;2023-03-01T14:51:23;24.77;;;19.15;;
485;SDS011;229;48.734;9.340;2023-03-01T14:53:50;26.40;;;20.17;;
485;SDS011;229;48.734;9.340;2023-03-01T14:56:18;25.80;;;20.20;;
485;SDS011;229;48.734;9.340;2023-03-01T14:58:46;27.77;;;19.42;;
485;SDS011;229;48.734;9.340;2023-03-01T15:01:14;23.63;;;18.52;;
485;SDS011;229;48.734;9.340;2023-03-01T15:03:43;25.38;;;19.23;;
485;SDS011;229;48.734;9.340;2023-03-01T15:06:14;29.45;;;20.60;;
485;SDS011;229;48.734;9.340;2023-03-01T15:08:44;22.65;;;18.40;;
485;SDS011;229;48.734;9.340;2023-03-01T15:11:17;23.95;;;18.70;;
485;SDS011;229;48.734;9.340;2023-03-01T15:13:47;26.83;;;19.52;;
485;SDS011;229;48.734;9.340;2023-03-01T15:16:15;25.75;;;20.33;;
485;SDS011;229;48.734;9.340;2023-03-01T15:18:43;26.48;;;19.38;;
485;SDS011;229;48.734;9.340;2023-03-01T15:21:17;23.80;;;18.05;;
485;SDS011;229;48.734;9.340;2023-03-01T15:23:48;26.48;;;18.52;;
485;SDS011;229;48.734;9.340;2023-03-01T15:26:22;24.42;;;19.02;;
485;SDS011;229;48.734;9.340;2023-03-01T15:28:50;26.40;;;19.80;;
485;SDS011;229;48.734;9.340;2023-03-01T15:31:18;29.25;;;20.25;;
485;SDS011;229;48.734;9.340;2023-03-01T15:33:46;24.27;;;19.50;;
485;SDS011;229;48.734;9.340;2023-03-01T15:36:31;26.20;;;18.02;;